createdAt,value
2018-06-09T00:01:54.426Z,14.93
2018-06-09T00:04:25.037Z,15.33
2018-06-09T00:06:55.719Z,14.87
2018-06-09T00:09:25.940Z,14.57
2018-06-09T00:11:56.793Z,14.77
2018-06-09T00:14:26.980Z,14.23
2018-06-09T00:16:58.102Z,14.27
2018-06-09T00:19:28.551Z,14.73
2018-06-09T00:21:59.313Z,14.37
2018-06-09T00:24:29.993Z,14.80
2018-06-09T00:27:00.726Z,15.40
2018-06-09T00:29:31.397Z,16.00
2018-06-09T00:32:02.237Z,15.60
2018-06-09T00:34:32.854Z,15.90
2018-06-09T00:37:03.560Z,16.23
2018-06-09T00:39:34.187Z,15.20
2018-06-09T00:42:04.924Z,15.17
2018-06-09T00:44:35.602Z,15.93
2018-06-09T00:47:06.340Z,15.60
2018-06-09T00:49:37.013Z,15.43
2018-06-09T00:52:08.164Z,15.77
2018-06-09T00:54:38.834Z,15.83
2018-06-09T00:57:09.562Z,15.53
2018-06-09T00:59:40.261Z,15.20
2018-06-09T01:02:11.027Z,14.73
2018-06-09T01:04:41.608Z,14.83
2018-06-09T01:07:12.289Z,14.77
2018-06-09T01:09:42.989Z,14.80
2018-06-09T01:12:13.677Z,14.20
2018-06-09T01:14:44.354Z,14.40
2018-06-09T01:17:15.046Z,14.23
2018-06-09T01:19:45.704Z,14.77
2018-06-09T01:22:16.489Z,14.87
2018-06-09T01:24:47.185Z,15.47
2018-06-09T01:27:17.885Z,15.60
2018-06-09T01:29:48.554Z,15.53
2018-06-09T01:32:19.369Z,16.70
2018-06-09T01:34:50.023Z,15.90
2018-06-09T01:37:20.869Z,17.43
2018-06-09T01:39:51.577Z,16.60
2018-06-09T01:42:22.695Z,16.87
2018-06-09T01:44:53.366Z,16.97
2018-06-09T01:47:23.982Z,15.93
2018-06-09T01:49:54.678Z,15.93
2018-06-09T01:52:25.774Z,16.03
2018-06-09T01:54:56.385Z,17.10
2018-06-09T01:57:27.329Z,17.70
2018-06-09T01:59:57.965Z,17.10
2018-06-09T02:02:28.545Z,16.27
2018-06-09T02:04:59.241Z,16.40
2018-06-09T02:07:30.065Z,16.30
2018-06-09T02:10:00.793Z,15.53
2018-06-09T02:12:31.620Z,16.37
2018-06-09T02:15:02.255Z,15.27
2018-06-09T02:17:33.322Z,17.43
2018-06-09T02:20:04.198Z,16.40
2018-06-09T02:22:34.985Z,16.60
2018-06-09T02:25:05.614Z,18.70
2018-06-09T02:27:36.409Z,18.50
2018-06-09T02:30:07.063Z,16.33
2018-06-09T02:32:37.893Z,17.10
2018-06-09T02:35:08.594Z,20.03
2018-06-09T02:37:39.522Z,21.40
2018-06-09T02:40:10.146Z,20.07
2018-06-09T02:42:40.805Z,18.23
2018-06-09T02:45:11.473Z,20.27
2018-06-09T02:47:42.299Z,18.67
2018-06-09T02:50:13.049Z,19.17
2018-06-09T02:52:43.728Z,19.83
2018-06-09T02:55:14.555Z,21.80
2018-06-09T02:57:45.529Z,21.17
2018-06-09T03:00:16.170Z,21.33
2018-06-09T03:02:46.864Z,20.13
2018-06-09T03:05:17.582Z,19.43
2018-06-09T03:07:48.387Z,23.93
2018-06-09T03:10:19.033Z,19.97
2018-06-09T03:12:49.765Z,19.70
2018-06-09T03:15:20.373Z,19.60
2018-06-09T03:17:56.613Z,19.73
2018-06-09T03:20:27.206Z,17.87
2018-06-09T03:22:57.897Z,18.10
2018-06-09T03:25:28.633Z,16.87
2018-06-09T03:27:59.461Z,16.83
2018-06-09T03:30:30.174Z,16.07
2018-06-09T03:33:00.877Z,17.13
2018-06-09T03:35:31.569Z,17.77
2018-06-09T03:38:02.270Z,20.33
2018-06-09T03:40:32.953Z,18.67
2018-06-09T03:43:11.067Z,18.83
2018-06-09T03:45:42.806Z,17.73
2018-06-09T03:48:13.699Z,18.57
2018-06-09T03:50:44.532Z,19.00
2018-06-09T03:53:15.403Z,18.20
2018-06-09T03:55:46.098Z,20.03
2018-06-09T03:58:16.769Z,19.70
2018-06-09T04:00:47.545Z,20.57
2018-06-09T04:03:18.393Z,20.63
2018-06-09T04:05:49.077Z,20.20
2018-06-09T04:08:19.819Z,20.30
2018-06-09T04:10:50.553Z,21.97
2018-06-09T04:13:21.345Z,21.33
2018-06-09T04:15:52.086Z,22.17
2018-06-09T04:18:22.924Z,22.23
2018-06-09T04:20:53.592Z,21.47
2018-06-09T04:23:24.457Z,22.87
2018-06-09T04:25:55.162Z,23.60
2018-06-09T04:28:25.763Z,23.27
2018-06-09T04:30:56.491Z,21.83
2018-06-09T04:33:27.186Z,21.53
2018-06-09T04:35:57.990Z,23.40
2018-06-09T04:38:28.713Z,23.73
2018-06-09T04:40:58.985Z,24.00
2018-06-09T04:43:29.619Z,24.17
2018-06-09T04:46:00.318Z,22.93
2018-06-09T04:48:31.081Z,24.10
2018-06-09T04:51:01.826Z,21.97
2018-06-09T04:53:32.689Z,23.23
2018-06-09T04:56:03.142Z,23.10
2018-06-09T04:58:33.420Z,21.80
2018-06-09T05:01:03.781Z,20.73
2018-06-09T05:03:34.042Z,21.20
2018-06-09T05:06:05.105Z,21.13
2018-06-09T05:08:35.786Z,19.93
2018-06-09T05:11:06.536Z,19.93
2018-06-09T05:13:37.513Z,19.27
2018-06-09T05:16:08.195Z,18.43
2018-06-09T05:18:42.733Z,21.03
2018-06-09T05:21:13.537Z,18.40
2018-06-09T05:23:44.193Z,18.43
2018-06-09T05:26:14.839Z,17.23
2018-06-09T05:28:45.214Z,16.87
2018-06-09T05:31:16.117Z,15.93
2018-06-09T05:33:46.377Z,16.10
2018-06-09T05:36:17.181Z,16.17
2018-06-09T05:38:47.518Z,16.13
2018-06-09T05:41:17.941Z,16.57
2018-06-09T05:43:48.596Z,15.70
2018-06-09T05:46:20.109Z,15.47
2018-06-09T05:48:50.450Z,16.13
2018-06-09T05:51:21.090Z,14.47
2018-06-09T05:53:51.681Z,15.47
2018-06-09T05:56:22.284Z,15.73
2018-06-09T05:58:52.924Z,14.87
2018-06-09T06:01:23.874Z,15.80
2018-06-09T06:03:54.287Z,14.97
2018-06-09T06:06:25.003Z,14.87
2018-06-09T06:08:55.474Z,15.27
2018-06-09T06:11:26.062Z,15.33
2018-06-09T06:13:56.403Z,19.73
2018-06-09T06:16:27.014Z,15.10
2018-06-09T06:18:57.331Z,16.37
2018-06-09T06:21:27.820Z,16.70
2018-06-09T06:23:57.696Z,14.93
2018-06-09T06:26:28.305Z,15.30
2018-06-09T06:28:58.586Z,15.10
2018-06-09T06:31:29.109Z,15.50
2018-06-09T06:33:59.890Z,15.13
2018-06-09T06:36:30.437Z,14.17
2018-06-09T06:39:00.717Z,17.27
2018-06-09T06:41:31.090Z,13.57
2018-06-09T06:44:01.543Z,15.07
2018-06-09T06:46:32.147Z,14.00
2018-06-09T06:49:02.816Z,14.30
2018-06-09T06:51:33.077Z,13.77
2018-06-09T06:54:03.706Z,14.23
2018-06-09T06:56:34.007Z,14.80
2018-06-09T06:59:04.342Z,13.87
2018-06-09T07:01:34.814Z,14.93
2018-06-09T07:04:05.158Z,14.33
2018-06-09T07:06:35.901Z,14.93
2018-06-09T07:09:09.026Z,15.20
2018-06-09T07:11:39.721Z,15.03
2018-06-09T07:14:09.999Z,15.87
2018-06-09T07:16:40.317Z,17.27
2018-06-09T07:19:10.887Z,16.97
2018-06-09T07:21:41.173Z,16.10
2018-06-09T07:24:11.538Z,16.77
2018-06-09T07:26:41.829Z,16.97
2018-06-09T07:29:12.298Z,15.77
2018-06-09T07:31:42.591Z,16.77
2018-06-09T07:34:12.959Z,14.70
2018-06-09T07:36:43.314Z,15.03
2018-06-09T07:39:13.692Z,13.97
2018-06-09T07:41:44.012Z,13.77
2018-06-09T07:44:14.598Z,15.17
2018-06-09T07:46:45.166Z,13.93
2018-06-09T07:49:15.589Z,14.57
2018-06-09T07:51:45.910Z,14.43
2018-06-09T07:54:16.186Z,14.13
2018-06-09T07:56:46.933Z,14.00
2018-06-09T07:59:17.638Z,14.03
2018-06-09T08:01:48.076Z,14.13
2018-06-09T08:04:18.337Z,15.20
2018-06-09T08:06:48.679Z,13.83
2018-06-09T08:09:19.018Z,13.87
2018-06-09T08:11:49.408Z,14.27
2018-06-09T08:14:19.700Z,14.87
2018-06-09T08:16:49.994Z,14.00
2018-06-09T08:19:20.763Z,13.47
2018-06-09T08:21:51.249Z,14.63
2018-06-09T08:24:21.581Z,14.83
2018-06-09T08:26:51.861Z,14.63
2018-06-09T08:29:22.137Z,13.30
2018-06-09T08:31:52.653Z,13.53
2018-06-09T08:34:22.962Z,12.00
2018-06-09T08:36:53.744Z,13.37
2018-06-09T08:39:24.553Z,12.33
2018-06-09T08:41:55.319Z,12.30
2018-06-09T08:44:25.665Z,11.17
2018-06-09T08:46:56.010Z,12.00
2018-06-09T08:49:26.573Z,12.60
2018-06-09T08:51:57.050Z,11.37
2018-06-09T08:54:27.379Z,12.00
2018-06-09T08:56:57.719Z,12.43
2018-06-09T08:59:28.318Z,11.27
2018-06-09T09:01:58.869Z,11.00
2018-06-09T09:04:29.203Z,12.00
2018-06-09T09:06:59.522Z,11.97
2018-06-09T09:09:30.381Z,13.33
2018-06-09T09:12:00.665Z,12.57
2018-06-09T09:14:30.934Z,11.40
2018-06-09T09:17:01.646Z,11.33
2018-06-09T09:19:31.921Z,11.40
2018-06-09T09:22:02.531Z,11.03
2018-06-09T09:24:33.274Z,10.87
2018-06-09T09:27:03.885Z,10.83
2018-06-09T09:29:34.156Z,10.37
2018-06-09T09:32:05.627Z,10.67
2018-06-09T09:34:35.962Z,10.33
2018-06-09T09:37:06.305Z,11.10
2018-06-09T09:39:36.583Z,10.33
2018-06-09T09:42:06.941Z,10.47
2018-06-09T09:44:37.258Z,9.13
2018-06-09T09:47:08.163Z,10.30
2018-06-09T09:49:39.078Z,9.85
2018-06-09T09:52:09.421Z,10.75
2018-06-09T09:54:41.122Z,11.77
2018-06-09T09:57:11.522Z,10.53
2018-06-09T09:59:41.801Z,11.90
2018-06-09T10:02:12.194Z,11.47
2018-06-09T10:04:42.548Z,11.43
2018-06-09T10:07:12.869Z,10.13
2018-06-09T10:09:43.232Z,10.05
2018-06-09T10:12:13.625Z,10.10
2018-06-09T10:14:43.978Z,10.15
2018-06-09T10:17:14.471Z,9.85
2018-06-09T10:19:44.782Z,9.60
2018-06-09T10:22:15.274Z,10.13
2018-06-09T10:24:45.650Z,8.80
2018-06-09T10:27:16.366Z,9.63
2018-06-09T10:29:46.661Z,8.75
2018-06-09T10:32:17.664Z,9.10
2018-06-09T10:34:47.958Z,8.85
2018-06-09T10:37:18.406Z,8.25
2018-06-09T10:39:48.731Z,8.13
2018-06-09T10:42:19.113Z,7.35
2018-06-09T10:44:49.909Z,6.97
2018-06-09T10:47:21.014Z,7.20
2018-06-09T10:49:51.689Z,9.18
2018-06-09T10:52:22.527Z,7.03
2018-06-09T10:54:53.271Z,6.80
2018-06-09T10:57:24.083Z,6.58
2018-06-09T10:59:54.742Z,6.45
2018-06-09T11:02:25.626Z,5.45
2018-06-09T11:04:55.933Z,5.87
2018-06-09T11:07:26.423Z,5.50
2018-06-09T11:09:56.721Z,7.62
2018-06-09T11:12:27.470Z,6.40
2018-06-09T11:14:58.210Z,6.00
2018-06-09T11:17:28.994Z,5.67
2018-06-09T11:19:59.514Z,6.55
2018-06-09T11:22:30.446Z,5.67
2018-06-09T11:25:00.758Z,5.70
2018-06-09T11:27:31.141Z,5.95
2018-06-09T11:30:01.488Z,5.25
2018-06-09T11:32:31.796Z,5.12
2018-06-09T11:35:02.133Z,5.20
2018-06-09T11:37:32.769Z,5.28
2018-06-09T11:40:03.166Z,5.50
2018-06-09T11:42:33.595Z,5.40
2018-06-09T11:45:04.387Z,6.37
2018-06-09T11:47:34.686Z,5.97
2018-06-09T11:50:05.102Z,5.50
2018-06-09T11:52:35.394Z,4.92
2018-06-09T11:55:05.699Z,5.60
2018-06-09T11:57:36.040Z,5.37
2018-06-09T12:00:06.354Z,5.33
2018-06-09T12:02:36.810Z,5.10
2018-06-09T12:05:07.207Z,4.92
2018-06-09T12:07:37.813Z,5.35
2018-06-09T12:10:08.509Z,5.72
2018-06-09T12:12:38.940Z,5.00
2018-06-09T12:15:09.256Z,5.33
2018-06-09T12:17:40.082Z,4.65
2018-06-09T12:20:10.770Z,4.90
2018-06-09T12:22:41.329Z,5.65
2018-06-09T12:25:11.913Z,4.72
2018-06-09T12:27:42.267Z,4.55
2018-06-09T12:30:12.945Z,4.90
2018-06-09T12:32:43.722Z,5.40
2018-06-09T12:35:14.358Z,5.10
2018-06-09T12:37:45.233Z,4.67
2018-06-09T12:40:16.026Z,4.28
2018-06-09T12:42:46.757Z,4.22
2018-06-09T12:45:17.449Z,4.25
2018-06-09T12:47:48.530Z,4.75
2018-06-09T12:50:18.883Z,4.20
2018-06-09T12:52:49.837Z,3.98
2018-06-09T12:55:20.482Z,3.80
2018-06-09T12:57:51.354Z,4.70
2018-06-09T13:00:22.108Z,4.17
2018-06-09T13:02:52.765Z,4.53
2018-06-09T13:05:23.054Z,4.05
2018-06-09T13:07:54.046Z,4.22
2018-06-09T13:10:24.838Z,4.40
2018-06-09T13:12:55.559Z,4.05
2018-06-09T13:15:26.347Z,4.28
2018-06-09T13:17:57.215Z,4.28
2018-06-09T13:20:27.973Z,4.30
2018-06-09T13:22:58.705Z,4.20
2018-06-09T13:25:29.390Z,3.70
2018-06-09T13:27:59.722Z,3.65
2018-06-09T13:30:30.007Z,3.70
2018-06-09T13:33:00.701Z,3.55
2018-06-09T13:35:31.386Z,4.00
2018-06-09T13:38:02.189Z,3.67
2018-06-09T13:40:32.952Z,4.08
2018-06-09T13:43:04.206Z,4.35
2018-06-09T13:45:34.453Z,4.05
2018-06-09T13:48:04.970Z,4.30
2018-06-09T13:50:35.282Z,3.77
2018-06-09T13:53:05.849Z,4.30
2018-06-09T13:55:36.150Z,4.08
2018-06-09T13:58:06.525Z,3.92
2018-06-09T14:00:36.821Z,4.50
2018-06-09T14:03:07.309Z,4.25
2018-06-09T14:05:37.602Z,4.40
2018-06-09T14:08:08.154Z,4.17
2018-06-09T14:10:38.452Z,4.05
2018-06-09T14:13:08.897Z,4.47
2018-06-09T14:15:39.199Z,3.85
2018-06-09T14:18:09.497Z,4.55
2018-06-09T14:20:39.861Z,4.20
2018-06-09T14:23:10.202Z,4.45
2018-06-09T14:25:40.555Z,4.23
2018-06-09T14:28:10.866Z,4.47
2018-06-09T14:30:42.818Z,4.73
2018-06-09T14:33:13.430Z,4.72
2018-06-09T14:35:43.817Z,4.92
2018-06-09T14:38:14.129Z,4.95
2018-06-09T14:40:44.548Z,6.12
2018-06-09T14:43:14.849Z,6.10
2018-06-09T14:45:46.516Z,5.72
2018-06-09T14:48:16.869Z,5.78
2018-06-09T14:50:47.285Z,4.95
2018-06-09T14:53:17.597Z,5.00
2018-06-09T14:55:48.142Z,5.22
2018-06-09T14:58:18.501Z,5.77
2018-06-09T15:00:49.110Z,4.60
2018-06-09T15:03:19.417Z,5.40
2018-06-09T15:05:49.373Z,5.10
2018-06-09T15:08:20.517Z,5.33
2018-06-09T15:10:51.217Z,5.37
2018-06-09T15:13:21.554Z,5.65
2018-06-09T15:15:52.005Z,5.05
2018-06-09T15:18:22.309Z,5.22
2018-06-09T15:20:52.733Z,5.45
2018-06-09T15:23:23.014Z,5.65
2018-06-09T15:25:53.394Z,5.58
2018-06-09T15:28:23.798Z,5.65
2018-06-09T15:30:54.246Z,5.80
2018-06-09T15:33:24.746Z,5.40
2018-06-09T15:35:55.057Z,5.70
2018-06-09T15:38:25.362Z,5.15
2018-06-09T15:40:55.834Z,5.20
2018-06-09T15:43:26.129Z,5.80
2018-06-09T15:45:56.423Z,5.30
2018-06-09T15:48:26.989Z,5.73
2018-06-09T15:50:57.312Z,5.30
2018-06-09T15:53:27.640Z,6.13
2018-06-09T15:55:57.962Z,5.87
2018-06-09T15:58:28.261Z,5.83
2018-06-09T16:00:58.570Z,5.07
2018-06-09T16:03:28.833Z,5.57
2018-06-09T16:05:59.220Z,5.27
2018-06-09T16:08:29.493Z,5.77
2018-06-09T16:10:59.875Z,5.67
2018-06-09T16:13:30.150Z,5.57
2018-06-09T16:16:00.594Z,5.60
2018-06-09T16:18:30.885Z,5.43
2018-06-09T16:21:00.712Z,5.57
2018-06-09T16:23:31.269Z,5.80
2018-06-09T16:26:01.539Z,5.43
2018-06-09T16:28:31.994Z,5.90
2018-06-09T16:31:02.339Z,5.70
2018-06-09T16:33:32.884Z,6.23
2018-06-09T16:36:03.162Z,5.73
2018-06-09T16:38:33.706Z,5.43
2018-06-09T16:41:03.999Z,5.80
2018-06-09T16:43:34.437Z,6.00
2018-06-09T16:46:04.768Z,6.20
2018-06-09T16:48:35.154Z,6.17
2018-06-09T16:51:05.486Z,6.37
2018-06-09T16:53:36.025Z,5.97
2018-06-09T16:56:06.415Z,6.20
2018-06-09T16:58:36.986Z,6.20
2018-06-09T17:01:07.358Z,5.67
2018-06-09T17:03:37.725Z,5.10
2018-06-09T17:06:08.019Z,5.93
2018-06-09T17:08:38.298Z,5.73
2018-06-09T17:11:09.013Z,6.87
2018-06-09T17:13:39.321Z,6.30
2018-06-09T17:16:09.703Z,6.60
2018-06-09T17:18:40.091Z,6.33
2018-06-09T17:21:10.417Z,6.13
2018-06-09T17:23:40.746Z,6.43
2018-06-09T17:26:11.042Z,6.10
2018-06-09T17:28:41.686Z,6.60
2018-06-09T17:31:11.967Z,6.37
2018-06-09T17:33:42.738Z,7.10
2018-06-09T17:36:13.010Z,6.60
2018-06-09T17:38:43.406Z,6.33
2018-06-09T17:41:13.682Z,6.37
2018-06-09T17:43:44.054Z,6.40
2018-06-09T17:46:14.401Z,6.50
2018-06-09T17:48:44.897Z,6.10
2018-06-09T17:51:15.219Z,5.57
2018-06-09T17:53:45.541Z,6.23
2018-06-09T17:56:15.823Z,6.23
2018-06-09T17:58:46.146Z,6.30
2018-06-09T18:01:16.494Z,6.33
2018-06-09T18:03:46.773Z,6.73
2018-06-09T18:06:17.142Z,6.40
2018-06-09T18:08:47.834Z,6.33
2018-06-09T18:11:18.117Z,6.60
2018-06-09T18:13:48.515Z,7.17
2018-06-09T18:16:18.802Z,6.83
2018-06-09T18:18:49.221Z,6.57
2018-06-09T18:21:19.671Z,7.20
2018-06-09T18:23:50.337Z,6.70
2018-06-09T18:26:20.658Z,7.80
2018-06-09T18:28:51.793Z,7.03
2018-06-09T18:31:22.053Z,7.43
2018-06-09T18:33:52.622Z,6.60
2018-06-09T18:36:22.942Z,6.50
2018-06-09T18:38:53.318Z,6.73
2018-06-09T18:41:23.148Z,7.10
2018-06-09T18:43:53.756Z,6.50
2018-06-09T18:46:23.994Z,6.80
2018-06-09T18:48:54.559Z,6.63
2018-06-09T18:51:24.912Z,6.50
2018-06-09T18:53:55.217Z,6.80
2018-06-09T18:56:25.682Z,6.33
2018-06-09T18:58:55.971Z,6.70
2018-06-09T19:01:26.365Z,6.00
2018-06-09T19:03:56.715Z,6.47
2018-06-09T19:06:27.434Z,6.40
2018-06-09T19:08:57.727Z,6.17
2018-06-09T19:11:27.556Z,6.33
2018-06-09T19:13:58.021Z,6.93
2018-06-09T19:16:28.382Z,7.00
2018-06-09T19:19:00.927Z,6.67
2018-06-09T19:21:31.222Z,8.60
2018-06-09T19:24:01.749Z,7.67
2018-06-09T19:26:32.035Z,7.00
2018-06-09T19:29:02.391Z,6.83
2018-06-09T19:31:32.729Z,6.80
2018-06-09T19:34:03.174Z,7.40
2018-06-09T19:36:33.458Z,7.03
2018-06-09T19:39:04.063Z,7.60
2018-06-09T19:41:34.511Z,14.13
2018-06-09T19:44:04.736Z,10.27
2018-06-09T19:46:35.703Z,30.57
2018-06-09T19:49:06.046Z,10.30
2018-06-09T19:51:36.370Z,9.60
2018-06-09T19:54:06.809Z,9.90
2018-06-09T19:56:37.088Z,9.00
2018-06-09T19:59:07.778Z,27.37
2018-06-09T20:01:38.110Z,18.67
2018-06-09T20:04:08.474Z,10.70
2018-06-09T20:06:39.276Z,10.60
2018-06-09T20:09:10.833Z,9.97
2018-06-09T20:11:41.218Z,10.17
2018-06-09T20:14:11.811Z,10.03
2018-06-09T20:16:42.163Z,11.70
2018-06-09T20:19:12.595Z,11.17
2018-06-09T20:21:42.897Z,10.47
2018-06-09T20:24:13.231Z,9.90
2018-06-09T20:26:43.642Z,10.60
2018-06-09T20:29:14.019Z,10.40
2018-06-09T20:31:44.509Z,10.03
2018-06-09T20:34:15.017Z,10.47
2018-06-09T20:36:45.798Z,8.97
2018-06-09T20:39:16.074Z,9.90
2018-06-09T20:41:47.389Z,8.93
2018-06-09T20:44:17.763Z,9.67
2018-06-09T20:46:48.149Z,9.20
2018-06-09T20:49:18.550Z,8.87
2018-06-09T20:51:48.920Z,8.17
2018-06-09T20:54:19.487Z,8.20
2018-06-09T20:56:49.830Z,9.43
2018-06-09T20:59:20.393Z,9.13
2018-06-09T21:01:50.723Z,9.03
2018-06-09T21:04:21.001Z,8.70
2018-06-09T21:06:51.603Z,8.83
2018-06-09T21:09:21.882Z,9.13
2018-06-09T21:11:52.381Z,8.80
2018-06-09T21:14:22.713Z,9.20
2018-06-09T21:16:53.234Z,9.10
2018-06-09T21:19:23.493Z,9.43
2018-06-09T21:21:53.798Z,8.30
2018-06-09T21:24:24.142Z,7.63
2018-06-09T21:26:59.575Z,7.83
2018-06-09T21:29:38.834Z,9.00
2018-06-09T21:32:09.801Z,7.57
2018-06-09T21:35:01.921Z,7.50
2018-06-09T21:37:42.653Z,7.60
2018-06-09T21:40:32.844Z,8.30
2018-06-09T21:43:08.234Z,7.37
2018-06-09T21:45:43.502Z,7.87
2018-06-09T21:48:13.983Z,7.23
2018-06-09T21:50:44.309Z,7.67
2018-06-09T21:53:14.666Z,7.33
2018-06-09T21:55:45.008Z,7.87
2018-06-09T21:58:15.766Z,6.93
2018-06-09T22:00:46.477Z,7.40
2018-06-09T22:03:17.083Z,6.90
2018-06-09T22:05:47.462Z,6.47
2018-06-09T22:08:17.782Z,6.50
2018-06-09T22:10:48.573Z,6.53
2018-06-09T22:13:19.265Z,6.87
2018-06-09T22:15:49.577Z,6.33
2018-06-09T22:18:20.230Z,6.97
2018-06-09T22:20:50.958Z,6.57
2018-06-09T22:23:21.546Z,6.40
2018-06-09T22:25:56.926Z,5.80
2018-06-09T22:28:27.669Z,6.77
2018-06-09T22:30:58.359Z,6.03
2018-06-09T22:33:29.086Z,5.83
2018-06-09T22:35:59.341Z,5.70
2018-06-09T22:38:29.990Z,6.00
2018-06-09T22:41:00.837Z,5.87
2018-06-09T22:43:31.092Z,5.27
2018-06-09T22:46:01.565Z,5.50
2018-06-09T22:48:31.858Z,6.20
2018-06-09T22:51:02.423Z,5.47
2018-06-09T22:53:32.699Z,6.27
2018-06-09T22:56:03.246Z,5.43
2018-06-09T22:58:33.594Z,5.27
2018-06-09T23:01:03.905Z,5.40
2018-06-09T23:03:34.230Z,5.50
2018-06-09T23:06:04.530Z,5.50
2018-06-09T23:08:34.797Z,5.13
2018-06-09T23:11:05.304Z,5.33
2018-06-09T23:13:35.585Z,5.33
2018-06-09T23:16:06.214Z,5.60
2018-06-09T23:18:36.485Z,5.67
2018-06-09T23:21:06.770Z,5.30
2018-06-09T23:23:37.285Z,5.33
2018-06-09T23:26:07.606Z,5.70
2018-06-09T23:28:37.926Z,5.63
2018-06-09T23:31:08.191Z,5.43
2018-06-09T23:33:38.675Z,6.30
2018-06-09T23:36:08.998Z,5.37
2018-06-09T23:38:39.357Z,4.63
2018-06-09T23:41:09.674Z,5.40
2018-06-09T23:43:40.166Z,5.23
2018-06-09T23:46:10.440Z,5.70
2018-06-09T23:48:41.086Z,6.20
2018-06-09T23:51:11.357Z,5.43
2018-06-09T23:53:41.689Z,5.63
2018-06-09T23:56:12.051Z,6.03
2018-06-09T23:58:42.645Z,6.60
